Time;durP1;ratioP1;P1;durP2;ratioP2;P2;SDS_P1;SDS_P2;PMS_P1;PMS_P2;Temp;Humidity;BMP_temperature;BMP_pressure;BME280_temperature;BME280_humidity;BME280_pressure;Samples;Min_cycle;Max_cycle;Signal;HPM_P1;HPM_P2
2021/05/22 00:01:45;;;;;;;0.30;0.20;;;11.40;99.90;;;;;;5115083;28;20782;-75
2021/05/22 00:04:11;;;;;;;1.30;0.20;;;11.40;99.90;;;;;;5115661;28;20448;-75
2021/05/22 00:06:38;;;;;;;0.40;0.10;;;11.30;99.90;;;;;;5116190;28;20408;-75
2021/05/22 00:09:05;;;;;;;0.40;0.20;;;11.40;99.90;;;;;;5114574;28;20526;-75
2021/05/22 00:11:33;;;;;;;0.30;0.10;;;11.30;99.90;;;;;;5111754;28;20712;-75
2021/05/22 00:14:00;;;;;;;0.40;0.10;;;11.40;99.90;;;;;;5112194;28;20857;-75
2021/05/22 00:16:26;;;;;;;0.70;0.20;;;11.50;99.90;;;;;;5112642;28;20495;-75
2021/05/22 00:18:54;;;;;;;0.30;0.10;;;11.40;99.90;;;;;;5113491;28;20432;-75
2021/05/22 00:21:20;;;;;;;1.10;0.20;;;11.30;99.90;;;;;;5113734;28;20434;-76
2021/05/22 00:23:46;;;;;;;0.70;0.10;;;11.20;99.90;;;;;;5113501;28;20527;-75
2021/05/22 00:26:13;;;;;;;0.68;0.15;;;11.40;99.90;;;;;;5114199;28;20419;-75
2021/05/22 00:28:39;;;;;;;0.40;0.10;;;11.30;99.90;;;;;;5115262;28;20455;-75
2021/05/22 00:31:05;;;;;;;0.50;0.20;;;11.10;99.90;;;;;;5114887;28;20417;-76
2021/05/22 00:33:32;;;;;;;0.40;0.10;;;11.20;99.90;;;;;;5115322;28;20708;-75
2021/05/22 00:35:59;;;;;;;0.50;0.13;;;11.10;99.90;;;;;;5112718;28;20420;-76
2021/05/22 00:38:26;;;;;;;0.60;0.20;;;11.00;99.90;;;;;;5113162;28;20420;-75
2021/05/22 00:40:52;;;;;;;0.40;0.10;;;11.10;99.90;;;;;;5114050;28;20462;-76
2021/05/22 00:43:19;;;;;;;2.00;0.20;;;11.00;99.90;;;;;;5111825;28;20499;-76
2021/05/22 00:45:45;;;;;;;0.30;0.10;;;11.10;99.90;;;;;;5114494;28;20511;-75
2021/05/22 00:48:12;;;;;;;1.02;0.20;;;10.90;99.90;;;;;;5117554;28;20786;-75
2021/05/22 00:50:42;;;;;;;0.43;0.10;;;11.00;99.90;;;;;;5117273;28;20898;-75
2021/05/22 00:53:10;;;;;;;0.50;0.10;;;11.00;99.90;;;;;;5116746;28;20772;-75
2021/05/22 00:55:37;;;;;;;0.43;0.20;;;10.90;99.90;;;;;;5117138;28;20518;-76
2021/05/22 00:58:05;;;;;;;0.30;0.10;;;10.90;99.90;;;;;;5117341;28;20404;-76
2021/05/22 01:00:39;;;;;;;0.50;0.20;;;11.00;99.90;;;;;;5117561;28;20512;-77
2021/05/22 01:03:07;;;;;;;0.30;0.10;;;10.90;99.90;;;;;;5119469;28;20423;-77
2021/05/22 01:05:34;;;;;;;1.10;0.20;;;10.90;99.90;;;;;;5119041;28;20527;-76
2021/05/22 01:08:13;;;;;;;0.50;0.10;;;10.80;99.90;;;;;;5118357;28;20498;-76
2021/05/22 01:10:41;;;;;;;0.60;0.10;;;10.70;99.90;;;;;;5117874;28;20416;-76
2021/05/22 01:13:08;;;;;;;0.52;0.10;;;10.70;99.90;;;;;;5116610;28;20442;-76
2021/05/22 01:15:35;;;;;;;0.50;0.20;;;10.70;99.90;;;;;;5117242;28;20439;-76
2021/05/22 01:18:02;;;;;;;0.50;0.10;;;10.90;99.90;;;;;;5115498;28;20412;-76
2021/05/22 01:20:35;;;;;;;0.30;0.10;;;10.70;99.90;;;;;;5116648;28;20522;-76
2021/05/22 01:23:05;;;;;;;0.40;0.10;;;10.70;99.90;;;;;;5116051;28;20707;-77
2021/05/22 01:25:35;;;;;;;0.60;0.20;;;10.60;99.90;;;;;;5116004;28;20479;-76
2021/05/22 01:28:04;;;;;;;0.40;0.10;;;10.70;99.90;;;;;;5117517;28;20452;-76
2021/05/22 01:30:31;;;;;;;0.90;0.10;;;10.70;99.90;;;;;;5116036;28;20551;-76
2021/05/22 01:32:57;;;;;;;0.35;0.10;;;10.60;99.90;;;;;;5115715;28;20432;-76
2021/05/22 01:35:24;;;;;;;0.30;0.10;;;10.60;99.90;;;;;;5115861;28;21447;-75
2021/05/22 01:37:51;;;;;;;0.60;0.10;;;10.60;99.90;;;;;;5116632;28;20552;-76
2021/05/22 01:40:18;;;;;;;0.30;0.10;;;10.70;99.90;;;;;;5116269;28;20515;-76
2021/05/22 01:42:45;;;;;;;0.40;0.20;;;10.60;99.90;;;;;;5116415;28;20507;-74
2021/05/22 01:45:16;;;;;;;0.40;0.10;;;10.70;99.90;;;;;;5116288;28;20738;-76
2021/05/22 01:47:45;;;;;;;0.40;0.20;;;10.70;99.90;;;;;;5116066;28;20440;-76
2021/05/22 01:50:15;;;;;;;1.70;0.20;;;10.80;99.90;;;;;;5116325;28;20435;-76
2021/05/22 01:52:44;;;;;;;0.80;0.20;;;10.80;99.90;;;;;;5116286;28;20491;-76
2021/05/22 01:55:12;;;;;;;0.40;0.20;;;10.90;99.90;;;;;;5117523;28;20451;-76
2021/05/22 01:57:39;;;;;;;0.43;0.20;;;11.00;99.90;;;;;;5116966;28;20761;-77
2021/05/22 02:00:08;;;;;;;0.40;0.20;;;11.10;99.90;;;;;;5117697;28;20532;-77
2021/05/22 02:02:35;;;;;;;0.40;0.20;;;11.00;99.90;;;;;;5117542;28;20424;-77
2021/05/22 02:05:05;;;;;;;0.70;0.30;;;11.20;99.90;;;;;;5117009;28;20482;-76
2021/05/22 02:07:36;;;;;;;0.60;0.30;;;11.30;99.90;;;;;;5116108;28;20765;-76
2021/05/22 02:10:05;;;;;;;0.40;0.20;;;11.40;99.90;;;;;;5115795;28;20431;-76
2021/05/22 02:12:34;;;;;;;0.60;0.20;;;11.40;99.90;;;;;;5115624;28;20499;-77
2021/05/22 02:15:03;;;;;;;0.30;0.20;;;11.50;99.90;;;;;;5115226;28;20460;-76
2021/05/22 02:18:03;;;;;;;0.70;0.20;;;11.50;99.90;;;;;;5114284;28;20474;-76
2021/05/22 02:20:31;;;;;;;0.60;0.20;;;11.50;99.90;;;;;;5114584;28;20416;-76
2021/05/22 02:22:58;;;;;;;0.35;0.10;;;11.40;99.90;;;;;;5115250;28;20851;-75
2021/05/22 02:25:26;;;;;;;0.40;0.20;;;11.30;99.90;;;;;;5115880;28;20434;-76
2021/05/22 02:27:53;;;;;;;0.30;0.20;;;11.20;99.90;;;;;;5116357;28;20427;-76
2021/05/22 02:30:21;;;;;;;0.60;0.20;;;11.10;99.90;;;;;;5115497;28;20472;-76
2021/05/22 02:32:49;;;;;;;0.30;0.10;;;11.10;99.90;;;;;;5066672;28;1383384;-75
2021/05/22 02:35:19;;;;;;;1.13;0.20;;;11.10;99.90;;;;;;5116192;28;20423;-76
2021/05/22 02:37:47;;;;;;;0.30;0.10;;;11.10;99.90;;;;;;5115904;28;20412;-76
2021/05/22 02:40:17;;;;;;;0.30;0.10;;;11.10;99.90;;;;;;5115972;28;20779;-76
2021/05/22 02:42:49;;;;;;;1.08;0.20;;;10.90;99.90;;;;;;5116563;28;20771;-74
2021/05/22 02:45:19;;;;;;;0.40;0.20;;;10.60;99.90;;;;;;5116368;28;20428;-73
2021/05/22 02:47:48;;;;;;;0.60;0.20;;;10.40;99.90;;;;;;5117478;27;20477;-75
2021/05/22 02:50:16;;;;;;;0.30;0.10;;;10.10;99.90;;;;;;5117809;28;20522;-75
2021/05/22 02:52:44;;;;;;;0.80;0.20;;;9.80;99.90;;;;;;5116135;28;20506;-75
2021/05/22 02:55:11;;;;;;;0.30;0.13;;;9.60;99.90;;;;;;5115892;28;20510;-75
2021/05/22 02:57:40;;;;;;;0.50;0.20;;;9.70;99.90;;;;;;5116181;28;20495;-75
2021/05/22 03:00:08;;;;;;;0.43;0.20;;;9.70;99.90;;;;;;5115979;28;20435;-75
2021/05/22 03:02:35;;;;;;;1.23;0.20;;;9.60;99.90;;;;;;5115713;28;20701;-75
2021/05/22 03:05:02;;;;;;;0.38;0.20;;;9.60;99.90;;;;;;5115956;28;20527;-75
2021/05/22 03:07:29;;;;;;;0.55;0.20;;;9.70;99.90;;;;;;5116640;28;20499;-75
2021/05/22 03:09:56;;;;;;;0.80;0.20;;;9.80;99.90;;;;;;5116806;28;20515;-74
2021/05/22 03:12:25;;;;;;;0.90;0.20;;;9.70;99.90;;;;;;5117568;28;20561;-75
2021/05/22 03:14:52;;;;;;;0.40;0.20;;;9.60;99.90;;;;;;5117063;28;20427;-75
2021/05/22 03:17:19;;;;;;;0.32;0.20;;;9.60;99.90;;;;;;5117594;28;20495;-75
2021/05/22 03:19:45;;;;;;;0.40;0.20;;;9.70;99.90;;;;;;5116732;28;20424;-75
2021/05/22 03:22:12;;;;;;;2.63;0.20;;;9.70;99.90;;;;;;5116518;28;20468;-75
2021/05/22 03:24:39;;;;;;;0.30;0.20;;;9.80;99.90;;;;;;5116932;28;20503;-75
2021/05/22 03:27:07;;;;;;;0.50;0.20;;;9.80;99.90;;;;;;5116435;28;20853;-75
2021/05/22 03:29:33;;;;;;;0.70;0.20;;;9.80;99.90;;;;;;5116771;28;20519;-75
2021/05/22 03:32:00;;;;;;;0.50;0.20;;;9.90;99.90;;;;;;5116770;28;20468;-75
2021/05/22 03:34:26;;;;;;;0.70;0.30;;;9.90;99.90;;;;;;5117019;28;20516;-75
2021/05/22 03:36:53;;;;;;;0.68;0.30;;;9.80;99.90;;;;;;5117181;28;20453;-75
2021/05/22 03:39:19;;;;;;;0.70;0.30;;;9.70;99.90;;;;;;5116745;28;20627;-75
2021/05/22 03:41:46;;;;;;;0.50;0.30;;;9.60;99.90;;;;;;5116835;28;20896;-75
2021/05/22 03:44:13;;;;;;;0.50;0.30;;;9.60;99.90;;;;;;5115962;28;20488;-75
2021/05/22 03:46:39;;;;;;;1.30;0.30;;;9.60;99.90;;;;;;5117042;28;20839;-75
2021/05/22 03:49:06;;;;;;;0.80;0.40;;;9.60;99.90;;;;;;5117167;28;20435;-75
2021/05/22 03:51:32;;;;;;;0.50;0.30;;;9.80;99.90;;;;;;5116548;28;20511;-75
2021/05/22 03:53:59;;;;;;;0.70;0.22;;;9.90;99.90;;;;;;5117135;28;20795;-75
2021/05/22 03:56:25;;;;;;;1.00;0.30;;;9.80;99.90;;;;;;5117766;28;20451;-75
2021/05/22 03:58:53;;;;;;;0.90;0.30;;;9.90;99.90;;;;;;5118099;28;20835;-75
2021/05/22 04:01:20;;;;;;;0.60;0.30;;;9.90;99.90;;;;;;5117088;28;20739;-75
2021/05/22 04:03:46;;;;;;;1.10;0.30;;;9.80;99.90;;;;;;5115235;28;20745;-75
2021/05/22 04:06:13;;;;;;;1.40;0.50;;;9.70;99.90;;;;;;5117416;28;20835;-75
2021/05/22 04:08:39;;;;;;;0.50;0.20;;;9.70;99.90;;;;;;5116324;28;20428;-75
2021/05/22 04:11:06;;;;;;;0.50;0.20;;;9.60;99.90;;;;;;5116403;28;20882;-75
2021/05/22 04:13:32;;;;;;;1.50;0.30;;;9.60;99.90;;;;;;5115981;28;20855;-75
2021/05/22 04:15:59;;;;;;;0.80;0.30;;;9.60;99.90;;;;;;5115628;28;20420;-76
2021/05/22 04:18:26;;;;;;;1.00;0.20;;;9.70;99.90;;;;;;5116963;28;20931;-75
2021/05/22 04:20:52;;;;;;;0.50;0.30;;;9.70;99.90;;;;;;5115932;28;20503;-75
2021/05/22 04:23:19;;;;;;;0.50;0.20;;;9.80;99.90;;;;;;5116587;28;20546;-75
2021/05/22 04:25:45;;;;;;;1.00;0.20;;;9.90;99.90;;;;;;5116106;28;20471;-75
2021/05/22 04:28:11;;;;;;;0.40;0.20;;;10.00;99.90;;;;;;5116665;28;20500;-75
2021/05/22 04:30:38;;;;;;;0.40;0.20;;;9.90;99.90;;;;;;5116354;28;20424;-76
2021/05/22 04:33:05;;;;;;;0.40;0.20;;;9.90;99.90;;;;;;5115769;28;20811;-73
2021/05/22 04:35:32;;;;;;;0.40;0.20;;;9.90;99.90;;;;;;5115462;28;20784;-74
2021/05/22 04:37:59;;;;;;;1.10;0.20;;;9.80;99.90;;;;;;5115608;28;20423;-74
2021/05/22 04:40:25;;;;;;;0.50;0.20;;;9.60;99.90;;;;;;5114547;28;20727;-74
2021/05/22 04:42:52;;;;;;;0.50;0.20;;;9.60;99.90;;;;;;5115535;28;20451;-74
2021/05/22 04:45:18;;;;;;;0.40;0.20;;;9.60;99.90;;;;;;5116185;28;20469;-75
2021/05/22 04:47:44;;;;;;;0.50;0.20;;;9.60;99.90;;;;;;5115789;28;20426;-73
2021/05/22 04:50:12;;;;;;;0.40;0.20;;;9.60;99.90;;;;;;5115770;28;20424;-73
2021/05/22 04:52:39;;;;;;;1.00;0.20;;;9.60;99.90;;;;;;5115168;28;20507;-73
2021/05/22 04:55:07;;;;;;;0.40;0.20;;;9.60;99.90;;;;;;5115752;28;20925;-74
2021/05/22 04:57:33;;;;;;;0.70;0.20;;;9.60;99.90;;;;;;5115310;28;20518;-74
2021/05/22 05:00:00;;;;;;;0.40;0.20;;;9.50;99.90;;;;;;5115843;28;20424;-74
2021/05/22 05:02:26;;;;;;;0.70;0.20;;;9.50;99.90;;;;;;5115745;28;20444;-75
2021/05/22 05:04:57;;;;;;;0.30;0.10;;;9.70;99.90;;;;;;5115788;28;20874;-77
2021/05/22 05:07:25;;;;;;;0.47;0.20;;;9.70;99.90;;;;;;5116574;28;20412;-78
2021/05/22 05:09:52;;;;;;;0.30;0.10;;;9.80;99.90;;;;;;5116133;28;20812;-75
2021/05/22 05:12:18;;;;;;;0.50;0.10;;;9.70;99.90;;;;;;5115730;28;20447;-75
2021/05/22 05:14:45;;;;;;;0.50;0.20;;;9.80;99.90;;;;;;5115163;28;20813;-75
2021/05/22 05:17:14;;;;;;;0.30;0.20;;;9.90;99.90;;;;;;5115653;28;20709;-73
2021/05/22 05:19:40;;;;;;;0.30;0.13;;;9.90;99.90;;;;;;5127486;28;20430;-73
2021/05/22 05:22:12;;;;;;;0.32;0.10;;;10.00;99.90;;;;;;5131239;28;20555;-73
2021/05/22 05:24:40;;;;;;;0.80;0.20;;;10.00;99.90;;;;;;5125630;28;20431;-73
2021/05/22 05:27:07;;;;;;;0.50;0.20;;;10.00;99.90;;;;;;5134771;28;20414;-73
2021/05/22 05:29:34;;;;;;;0.50;0.20;;;10.00;99.90;;;;;;5114238;28;20427;-73
2021/05/22 05:32:00;;;;;;;0.50;0.20;;;9.90;99.90;;;;;;5114660;28;20522;-74
2021/05/22 05:34:27;;;;;;;1.30;0.20;;;10.00;99.90;;;;;;5117317;28;20511;-75
2021/05/22 05:36:53;;;;;;;1.50;0.20;;;10.00;99.90;;;;;;5116573;28;20448;-74
2021/05/22 05:39:19;;;;;;;0.50;0.20;;;10.10;99.90;;;;;;5118045;28;20484;-75
2021/05/22 05:41:48;;;;;;;0.40;0.20;;;10.20;99.90;;;;;;5137923;27;20449;-75
2021/05/22 05:44:14;;;;;;;1.10;0.40;;;10.10;99.90;;;;;;5139221;27;20449;-75
2021/05/22 05:46:41;;;;;;;0.40;0.20;;;10.20;99.90;;;;;;5139265;27;20735;-75
2021/05/22 05:49:07;;;;;;;0.50;0.20;;;10.30;99.90;;;;;;5137924;27;20895;-75
2021/05/22 05:51:33;;;;;;;0.90;0.20;;;10.30;99.90;;;;;;5138351;27;20947;-75
2021/05/22 05:54:00;;;;;;;0.40;0.20;;;10.20;99.90;;;;;;5137333;27;20422;-75
2021/05/22 05:56:26;;;;;;;0.47;0.20;;;10.20;99.90;;;;;;5138443;27;20438;-72
2021/05/22 05:58:54;;;;;;;1.48;0.25;;;10.30;99.90;;;;;;5136860;27;20472;-72
2021/05/22 06:01:20;;;;;;;0.88;0.20;;;10.30;99.90;;;;;;5136788;27;20497;-73
2021/05/22 06:03:48;;;;;;;0.40;0.20;;;10.50;99.90;;;;;;5136386;27;20510;-73
2021/05/22 06:06:14;;;;;;;1.30;0.20;;;10.60;99.90;;;;;;5126866;27;20424;-74
2021/05/22 06:08:41;;;;;;;0.70;0.20;;;10.50;99.90;;;;;;5117457;27;20763;-74
2021/05/22 06:11:11;;;;;;;0.55;0.30;;;10.60;99.90;;;;;;5117212;28;21057;-73
2021/05/22 06:13:37;;;;;;;0.70;0.20;;;10.60;99.90;;;;;;5117143;28;20443;-74
2021/05/22 06:16:15;;;;;;;1.00;0.20;;;10.70;99.90;;;;;;5122171;27;20954;-73
2021/05/22 06:18:42;;;;;;;0.90;0.20;;;10.70;99.90;;;;;;5126904;27;20722;-74
2021/05/22 06:21:09;;;;;;;0.80;0.20;;;10.70;99.90;;;;;;5122726;27;20494;-73
2021/05/22 06:23:36;;;;;;;0.90;0.30;;;11.00;99.90;;;;;;5133795;27;20427;-75
2021/05/22 06:26:04;;;;;;;0.50;0.20;;;11.20;99.90;;;;;;5134533;27;20509;-73
2021/05/22 06:28:31;;;;;;;0.87;0.30;;;11.50;99.90;;;;;;5131120;27;20675;-73
2021/05/22 06:30:58;;;;;;;0.90;0.30;;;11.70;99.90;;;;;;5115708;28;20635;-73
2021/05/22 06:33:26;;;;;;;0.60;0.25;;;11.80;99.90;;;;;;5114853;28;20495;-73
2021/05/22 06:35:52;;;;;;;0.40;0.20;;;11.90;99.90;;;;;;5116105;28;21072;-73
2021/05/22 06:38:18;;;;;;;1.50;0.30;;;12.00;99.90;;;;;;5116321;28;20516;-73
2021/05/22 06:40:45;;;;;;;1.30;0.20;;;12.10;99.90;;;;;;5120643;27;20483;-73
2021/05/22 06:43:12;;;;;;;2.38;0.30;;;12.30;99.90;;;;;;5124928;27;20507;-72
2021/05/22 06:45:40;;;;;;;0.90;0.20;;;12.20;99.90;;;;;;5137283;27;20527;-73
2021/05/22 06:48:08;;;;;;;1.23;0.20;;;12.30;99.90;;;;;;5137485;27;20506;-73
2021/05/22 06:50:36;;;;;;;0.70;0.30;;;12.40;99.90;;;;;;5137276;27;20487;-73
2021/05/22 06:53:02;;;;;;;1.20;0.30;;;12.50;99.90;;;;;;5137566;27;20442;-72
2021/05/22 06:55:29;;;;;;;0.50;0.20;;;12.50;99.90;;;;;;5136983;27;20506;-72
2021/05/22 06:57:55;;;;;;;1.30;0.20;;;12.60;99.90;;;;;;5137021;27;20867;-73
2021/05/22 07:00:23;;;;;;;0.60;0.20;;;12.70;99.90;;;;;;5136467;27;20846;-74
2021/05/22 07:02:50;;;;;;;0.60;0.20;;;12.70;99.90;;;;;;5129498;27;20827;-73
2021/05/22 07:05:16;;;;;;;0.60;0.20;;;12.70;99.90;;;;;;5116143;28;20815;-73
2021/05/22 07:07:44;;;;;;;1.30;0.30;;;12.80;99.90;;;;;;5115875;28;20755;-73
2021/05/22 07:10:12;;;;;;;0.70;0.30;;;12.80;99.90;;;;;;5116278;28;21006;-74
2021/05/22 07:12:39;;;;;;;0.47;0.20;;;13.00;99.90;;;;;;5116413;28;20459;-71
2021/05/22 07:15:07;;;;;;;0.80;0.20;;;13.10;99.90;;;;;;5116012;28;20490;-72
2021/05/22 07:17:34;;;;;;;0.60;0.20;;;13.30;99.90;;;;;;5116117;28;20735;-73
2021/05/22 07:20:00;;;;;;;0.70;0.30;;;13.30;99.90;;;;;;5115389;28;20519;-72
2021/05/22 07:22:27;;;;;;;0.80;0.40;;;13.30;99.90;;;;;;5115685;28;20463;-72
2021/05/22 07:24:55;;;;;;;1.00;0.40;;;13.40;99.90;;;;;;5114628;28;20436;-72
2021/05/22 07:27:22;;;;;;;0.60;0.30;;;13.50;99.90;;;;;;5114879;28;20456;-72
2021/05/22 07:29:50;;;;;;;2.20;1.13;;;13.40;99.90;;;;;;5115544;28;20420;-72
2021/05/22 07:32:16;;;;;;;1.90;1.13;;;13.40;99.90;;;;;;5114565;27;20501;-72
2021/05/22 07:34:43;;;;;;;1.00;0.30;;;13.40;99.90;;;;;;5115903;28;20749;-72
2021/05/22 07:37:09;;;;;;;0.80;0.28;;;13.50;99.90;;;;;;5116330;28;20424;-72
2021/05/22 07:39:36;;;;;;;1.55;0.20;;;13.60;99.90;;;;;;5118761;27;20820;-72
2021/05/22 07:42:04;;;;;;;0.60;0.20;;;13.60;99.90;;;;;;5136593;27;20542;-73
2021/05/22 07:44:30;;;;;;;0.55;0.20;;;13.70;99.90;;;;;;5135037;27;20434;-73
2021/05/22 07:46:56;;;;;;;1.30;0.30;;;13.80;99.90;;;;;;5136470;27;20464;-71
2021/05/22 07:49:23;;;;;;;0.50;0.30;;;13.90;99.90;;;;;;5124692;27;20451;-72
2021/05/22 07:51:50;;;;;;;0.75;0.30;;;14.10;99.90;;;;;;5129553;27;20430;-72
2021/05/22 07:54:16;;;;;;;0.70;0.30;;;13.90;99.90;;;;;;5125083;27;20428;-72
2021/05/22 07:56:42;;;;;;;0.90;0.30;;;13.90;99.90;;;;;;5116979;27;20521;-71
2021/05/22 07:59:10;;;;;;;0.95;0.20;;;13.70;99.90;;;;;;5121359;27;20928;-73
2021/05/22 08:01:36;;;;;;;0.40;0.20;;;13.30;99.90;;;;;;5128116;27;20821;-72
2021/05/22 08:04:03;;;;;;;0.60;0.20;;;13.50;99.90;;;;;;5129248;27;20545;-73
2021/05/22 08:06:29;;;;;;;0.40;0.20;;;13.90;99.90;;;;;;5122562;27;20463;-72
2021/05/22 08:08:56;;;;;;;0.85;0.20;;;14.00;99.90;;;;;;5114709;27;20515;-74
2021/05/22 08:11:22;;;;;;;0.70;0.20;;;13.80;99.90;;;;;;5132240;27;20469;-73
2021/05/22 08:13:49;;;;;;;0.50;0.20;;;13.80;99.90;;;;;;5126017;27;20765;-71
2021/05/22 08:16:16;;;;;;;1.00;0.20;;;14.00;99.90;;;;;;5113245;28;20737;-71
2021/05/22 08:18:42;;;;;;;0.50;0.20;;;14.20;99.90;;;;;;5112859;28;20793;-71
2021/05/22 08:21:09;;;;;;;2.08;0.20;;;14.20;99.90;;;;;;5114944;27;20900;-73
2021/05/22 08:23:35;;;;;;;2.33;0.30;;;14.20;99.90;;;;;;5117685;28;20863;-73
2021/05/22 08:26:01;;;;;;;0.60;0.20;;;14.20;99.90;;;;;;5127274;27;20925;-72
2021/05/22 08:28:29;;;;;;;0.70;0.20;;;14.10;99.90;;;;;;5120477;27;20510;-72
2021/05/22 08:30:58;;;;;;;0.70;0.20;;;14.40;99.90;;;;;;5128853;27;20522;-72
2021/05/22 08:33:25;;;;;;;2.03;0.20;;;14.70;99.90;;;;;;5133127;28;20414;-73
2021/05/22 08:35:52;;;;;;;0.57;0.20;;;14.60;99.90;;;;;;5129144;28;20512;-72
2021/05/22 08:38:18;;;;;;;1.30;0.20;;;14.50;99.90;;;;;;5120642;28;20420;-73
2021/05/22 08:40:44;;;;;;;1.50;0.20;;;14.60;99.90;;;;;;5132781;28;20427;-72
2021/05/22 08:43:11;;;;;;;0.45;0.20;;;14.60;99.90;;;;;;5132638;28;20446;-72
2021/05/22 08:45:41;;;;;;;1.60;0.40;;;14.70;99.90;;;;;;5119153;28;20947;-72
2021/05/22 08:48:08;;;;;;;0.63;0.20;;;14.80;99.90;;;;;;5117041;28;20502;-72
2021/05/22 08:50:35;;;;;;;0.57;0.20;;;15.00;99.90;;;;;;5129716;28;20466;-72
2021/05/22 08:53:02;;;;;;;0.40;0.20;;;15.30;99.90;;;;;;5124407;28;20498;-73
2021/05/22 08:55:28;;;;;;;0.80;0.20;;;15.40;99.90;;;;;;5123766;28;20762;-74
2021/05/22 08:57:55;;;;;;;0.80;0.20;;;15.40;99.90;;;;;;5120760;28;20535;-72
2021/05/22 09:00:24;;;;;;;0.70;0.20;;;15.40;99.90;;;;;;5133395;28;20871;-73
2021/05/22 09:02:50;;;;;;;0.57;0.20;;;14.80;99.90;;;;;;5132505;28;20464;-72
2021/05/22 09:05:21;;;;;;;2.00;0.60;;;14.90;99.90;;;;;;5126246;28;20863;-73
2021/05/22 09:07:49;;;;;;;0.40;0.20;;;15.20;99.90;;;;;;5113382;28;20416;-73
2021/05/22 09:10:20;;;;;;;3.27;0.30;;;15.40;99.90;;;;;;5121188;27;20869;-73
2021/05/22 09:12:48;;;;;;;1.30;0.20;;;15.60;99.90;;;;;;5136708;27;20417;-73
2021/05/22 09:15:16;;;;;;;0.50;0.20;;;15.70;99.90;;;;;;5136805;27;20430;-73
2021/05/22 09:17:52;;;;;;;0.60;0.20;;;15.80;99.90;;;;;;5136046;27;20501;-72
2021/05/22 09:20:22;;;;;;;0.50;0.20;;;15.80;99.90;;;;;;5114818;28;20467;-73
2021/05/22 09:23:04;;;;;;;0.60;0.20;;;15.80;99.90;;;;;;5115873;27;20444;-72
2021/05/22 09:25:32;;;;;;;0.70;0.30;;;15.60;99.90;;;;;;5114874;27;20519;-73
2021/05/22 09:27:59;;;;;;;0.60;0.20;;;15.90;99.90;;;;;;5116205;27;20412;-73
2021/05/22 09:30:27;;;;;;;1.05;0.20;;;16.00;99.90;;;;;;5116575;27;20563;-73
2021/05/22 09:32:54;;;;;;;0.50;0.20;;;16.10;99.90;;;;;;5100692;28;20456;-72
2021/05/22 09:35:22;;;;;;;0.80;0.20;;;16.10;99.90;;;;;;5107196;28;20420;-72
2021/05/22 09:37:50;;;;;;;0.70;0.20;;;16.20;99.90;;;;;;5109946;28;20528;-73
2021/05/22 09:40:21;;;;;;;1.80;0.20;;;16.30;99.90;;;;;;5099184;28;20518;-72
2021/05/22 09:42:47;;;;;;;0.40;0.20;;;16.40;99.90;;;;;;5104228;27;20946;-73
2021/05/22 09:45:28;;;;;;;0.50;0.20;;;16.50;99.90;;;;;;5115054;28;20493;-72
2021/05/22 09:47:56;;;;;;;0.50;0.20;;;16.60;99.90;;;;;;5099692;28;20454;-73
2021/05/22 09:50:33;;;;;;;0.63;0.20;;;16.70;99.90;;;;;;5102202;28;20426;-72
2021/05/22 09:53:00;;;;;;;0.73;0.20;;;16.50;99.90;;;;;;5093518;28;20434;-72
2021/05/22 09:55:28;;;;;;;1.20;0.20;;;16.40;99.90;;;;;;5108542;28;20496;-72
2021/05/22 09:57:56;;;;;;;0.43;0.20;;;16.60;99.90;;;;;;5111827;28;20769;-72
2021/05/22 10:00:24;;;;;;;0.37;0.10;;;16.60;99.90;;;;;;5099822;28;20421;-73
2021/05/22 10:02:52;;;;;;;0.88;0.20;;;16.40;99.90;;;;;;5106463;28;20505;-72
2021/05/22 10:05:20;;;;;;;10.73;7.20;;;16.40;99.90;;;;;;5103744;28;20470;-72
2021/05/22 10:07:49;;;;;;;0.60;0.30;;;16.50;99.90;;;;;;5114373;28;20893;-73
2021/05/22 10:10:16;;;;;;;0.40;0.20;;;16.70;99.90;;;;;;5097703;28;20448;-73
2021/05/22 10:12:46;;;;;;;0.50;0.20;;;16.50;99.90;;;;;;5107311;28;20443;-72
2021/05/22 10:15:14;;;;;;;5.40;0.30;;;16.60;99.90;;;;;;5107270;28;20446;-73
2021/05/22 10:17:42;;;;;;;1.50;0.20;;;16.80;99.90;;;;;;5113984;28;20491;-73
2021/05/22 10:20:09;;;;;;;3.22;1.73;;;16.90;99.90;;;;;;5104280;28;20431;-73
2021/05/22 10:22:35;;;;;;;1.00;0.70;;;17.30;99.90;;;;;;5106870;27;20493;-72
2021/05/22 10:25:05;;;;;;;1.10;0.30;;;17.30;99.90;;;;;;5102455;28;21095;-72
2021/05/22 10:27:33;;;;;;;0.70;0.30;;;17.80;97.70;;;;;;5102590;28;20511;-72
2021/05/22 10:30:00;;;;;;;0.50;0.20;;;18.10;98.40;;;;;;5101696;28;20478;-72
2021/05/22 10:32:27;;;;;;;0.90;0.20;;;18.40;95.40;;;;;;5098989;28;20459;-71
2021/05/22 10:34:55;;;;;;;0.70;0.20;;;18.10;94.20;;;;;;5104368;28;20471;-72
2021/05/22 10:37:44;;;;;;;1.00;0.20;;;18.00;94.30;;;;;;5105387;28;21193;-72
2021/05/22 10:40:12;;;;;;;0.85;0.20;;;18.10;94.00;;;;;;5103746;28;20457;-72
2021/05/22 10:42:48;;;;;;;0.60;0.20;;;18.20;91.40;;;;;;5105221;28;20527;-72
2021/05/22 10:45:27;;;;;;;0.40;0.20;;;18.60;90.50;;;;;;5095432;28;20430;-73
2021/05/22 10:47:55;;;;;;;0.40;0.10;;;18.60;91.30;;;;;;5106191;28;20505;-73
2021/05/22 10:50:44;;;;;;;1.50;0.20;;;18.40;89.80;;;;;;5118049;28;20895;-73
2021/05/22 10:53:30;;;;;;;0.60;0.20;;;18.30;92.00;;;;;;5119100;28;20423;-73
2021/05/22 10:56:13;;;;;;;0.63;0.20;;;18.40;89.90;;;;;;5115319;28;20829;-73
2021/05/22 10:58:55;;;;;;;0.40;0.20;;;18.60;90.70;;;;;;5118424;28;20420;-75
2021/05/22 11:01:40;;;;;;;0.60;0.30;;;18.30;80.40;;;;;;5116663;27;20883;-75
2021/05/22 11:04:32;;;;;;;0.40;0.20;;;18.10;87.00;;;;;;5116550;28;20427;-75
2021/05/22 11:07:01;;;;;;;0.40;0.20;;;18.70;86.80;;;;;;5115078;27;20987;-74
2021/05/22 11:09:56;;;;;;;0.45;0.20;;;19.50;81.80;;;;;;5115002;28;20428;-73
2021/05/22 11:12:50;;;;;;;1.00;0.20;;;19.20;75.20;;;;;;5114499;28;20443;-73
2021/05/22 11:15:50;;;;;;;0.40;0.20;;;19.60;69.80;;;;;;5067711;28;20981;-74
2021/05/22 11:18:21;;;;;;;0.70;0.20;;;19.40;64.80;;;;;;5114594;28;20439;-73
2021/05/22 11:21:15;;;;;;;0.40;0.10;;;19.20;65.30;;;;;;5115512;28;20427;-72
2021/05/22 11:24:02;;;;;;;0.40;0.20;;;19.40;65.50;;;;;;5114877;28;20428;-73
2021/05/22 11:27:01;;;;;;;1.00;0.80;;;20.30;64.10;;;;;;5116233;28;20477;-73
2021/05/22 11:29:55;;;;;;;1.15;0.55;;;20.20;64.00;;;;;;5106106;28;20597;-74
2021/05/22 11:32:50;;;;;;;0.40;0.20;;;20.40;66.30;;;;;;5111498;27;20711;-73
2021/05/22 11:35:46;;;;;;;1.00;0.20;;;20.50;64.80;;;;;;5122125;27;20494;-73
2021/05/22 11:38:34;;;;;;;0.40;0.20;;;20.40;62.00;;;;;;5114105;27;20473;-73
2021/05/22 11:41:09;;;;;;;1.00;0.20;;;20.30;62.90;;;;;;5128868;27;20499;-74
2021/05/22 11:43:40;;;;;;;0.60;0.20;;;20.50;64.20;;;;;;5133230;27;20426;-74
2021/05/22 11:46:08;;;;;;;1.10;0.20;;;20.40;59.10;;;;;;5133861;27;20426;-74
2021/05/22 11:48:36;;;;;;;0.38;0.10;;;20.50;59.20;;;;;;5123995;27;20882;-74
2021/05/22 11:51:23;;;;;;;0.60;0.20;;;20.20;59.00;;;;;;5117033;27;20728;-75
2021/05/22 11:53:59;;;;;;;0.63;0.20;;;20.40;59.80;;;;;;5124668;27;20449;-75
2021/05/22 11:56:27;;;;;;;0.50;0.10;;;21.20;58.10;;;;;;5113403;28;20412;-76
2021/05/22 11:58:54;;;;;;;0.50;0.10;;;21.10;58.10;;;;;;5131833;27;20431;-75
2021/05/22 12:01:23;;;;;;;0.70;0.20;;;21.40;58.30;;;;;;5130554;27;20775;-75
2021/05/22 12:03:51;;;;;;;0.40;0.10;;;21.50;58.00;;;;;;5130041;27;20782;-74
2021/05/22 12:06:28;;;;;;;0.50;0.20;;;21.20;56.00;;;;;;5131030;27;20682;-74
2021/05/22 12:09:06;;;;;;;0.47;0.20;;;21.30;57.00;;;;;;5125287;27;20430;-75
2021/05/22 12:11:33;;;;;;;0.43;0.20;;;21.40;55.60;;;;;;5130563;27;20784;-76
2021/05/22 12:14:01;;;;;;;0.32;0.10;;;21.20;55.50;;;;;;5114609;28;20494;-74
2021/05/22 12:16:28;;;;;;;0.60;0.20;;;20.70;56.00;;;;;;5119934;27;20530;-74
2021/05/22 12:18:55;;;;;;;0.30;0.20;;;20.80;57.20;;;;;;5121154;27;20452;-74
2021/05/22 12:21:30;;;;;;;0.70;0.20;;;21.30;57.70;;;;;;5117926;27;20608;-73
2021/05/22 12:24:07;;;;;;;1.80;0.20;;;21.60;54.20;;;;;;5113124;27;20423;-77
2021/05/22 12:26:36;;;;;;;1.27;0.20;;;22.00;54.70;;;;;;5128008;27;20505;-76
2021/05/22 12:29:03;;;;;;;1.10;0.20;;;22.10;55.30;;;;;;5128942;27;20431;-76
2021/05/22 12:31:29;;;;;;;0.50;0.20;;;22.00;53.50;;;;;;5126161;27;20503;-75
2021/05/22 12:34:01;;;;;;;0.40;0.20;;;21.10;53.30;;;;;;5132406;27;20418;-77
2021/05/22 12:36:32;;;;;;;0.50;0.20;;;19.90;55.30;;;;;;5123593;28;20859;-78
2021/05/22 12:38:58;;;;;;;0.57;0.20;;;19.80;57.90;;;;;;5125555;28;20536;-77
2021/05/22 12:41:33;;;;;;;0.40;0.10;;;19.80;55.80;;;;;;5131358;27;20443;-77
2021/05/22 12:43:59;;;;;;;0.40;0.20;;;19.80;56.40;;;;;;5132292;27;20905;-76
2021/05/22 12:46:28;;;;;;;0.70;0.20;;;19.90;56.70;;;;;;5126209;27;20926;-76
2021/05/22 12:49:11;;;;;;;2.03;0.90;;;20.10;56.90;;;;;;5127097;27;20596;-76
2021/05/22 12:51:40;;;;;;;0.40;0.15;;;19.40;57.50;;;;;;5130839;27;20435;-76
2021/05/22 12:54:28;;;;;;;1.30;0.20;;;19.00;58.00;;;;;;5133243;27;22639;-76
2021/05/22 12:57:03;;;;;;;0.63;0.30;;;18.60;60.00;;;;;;5135540;27;20521;-76
2021/05/22 12:59:34;;;;;;;0.40;0.20;;;18.70;61.60;;;;;;5131637;27;20836;-76